Latest Weather Observations for Alice Springs Airport

IDD60801

Issued at 7:04 pm CST Thursday 2 April 2015 (issued every 30 minutes, with the page automatically refreshed every 10 minutes)

About weather observations | Map of weather stations | Latest weather observations for NT | Other Formats
Station Details ID: 015590 Name: ALICE SPRINGS AIRPORT Lat: -23.80 Lon: 133.89 Height: 546.0 m
Data from the previous 72 hours. | See also: Recent months at Alice Springs Airport
Date/Time
CST
Temp
°C
App
Temp
°C
Dew
Point
Rel
Hum
%
Delta-T
°C
Wind Press
QNH
hPa
Press
MSL
hPa
Rain
since 9 am
mm
Dir
 
Spd
km/h
Gust
km/h
Spd
kts
Gust
kts
02/07:00pm 29.1 25.0 4.6 21 12.9 SE 15 17 8 9 1015.6 1013.4 0.0
02/06:30pm 30.4 25.5 3.9 18 13.9 ESE 19 28 10 15 1015.2 1012.9 0.0
02/06:00pm 31.2 26.3 4.2 18 14.3 SE 19 30 10 16 1014.8 1012.5 0.0
02/05:30pm 31.7 27.6 4.6 18 14.5 SE 15 28 8 15 1014.5 1012.2 0.0
02/05:00pm 32.6 27.6 4.4 17 15.1 SE 20 30 11 16 1014.2 1011.9 0.0
02/04:30pm 32.4 27.5 5.0 18 14.8 ESE 20 35 11 19 1014.2 1011.9 0.0
02/04:00pm 31.9 28.1 5.7 19 14.3 E 15 22 8 12 1014.1 1011.8 0.0
02/03:30pm 32.7 26.6 5.0 17 15.0 E 26 35 14 19 1014.3 1012.0 0.0
02/03:00pm 32.2 27.6 6.5 20 14.2 ESE 20 33 11 18 1014.7 1012.4 0.0
02/02:30pm 31.4 26.4 6.5 21 13.7 E 22 37 12 20 1015.0 1012.7 0.0
02/02:00pm 31.5 26.9 6.4 20 13.8 E 20 30 11 16 1015.3 1013.1 0.0
02/01:30pm 31.7 26.0 6.5 20 13.9 ENE 26 37 14 20 1015.6 1013.4 0.0
02/01:00pm 31.6 26.3 6.6 21 13.8 E 24 33 13 18 1016.2 1013.9 0.0
02/12:00pm 30.4 24.2 6.2 21 13.2 ESE 28 35 15 19 1017.2 1015.0 0.0
02/11:30am 29.8 24.7 6.2 22 12.8 E 22 35 12 19 1017.6 1015.4 0.0
02/10:30am 28.0 22.1 5.7 24 11.9 E 26 33 14 18 1018.3 1016.0 0.0
02/10:00am 27.3 21.7 5.6 25 11.5 ESE 24 32 13 17 1018.8 1016.6 0.0
02/09:30am 26.5 20.6 5.7 26 11.0 ESE 26 35 14 19 1019.0 1016.8 0.0
02/09:00am 26.0 19.6 5.1 26 10.9 ESE 28 33 15 18 1019.1 1016.9 0.0
02/07:00am 17.1 14.0 3.4 40 6.5 S 9 13 5 7 1017.9 1015.6 0.0
02/06:30am 17.1 14.3 2.9 38 6.7 NW 7 9 4 5 1017.4 1015.2 0.0
02/05:30am 17.4 15.6 3.3 39 6.7 NNW 2 6 1 3 1016.9 1014.6 0.0
02/05:00am 17.1 13.9 2.9 38 6.7 NW 9 9 5 5 1016.7 1014.4 0.0
02/04:30am 18.3 15.5 3.3 37 7.2 N 7 7 4 4 1016.4 1014.1 0.0
02/04:00am 18.5 15.7 3.0 35 7.4 NW 7 9 4 5 1016.2 1013.9 0.0
02/03:30am 18.8 16.0 2.9 34 7.6 NNW 7 7 4 4 1015.8 1013.6 0.0
02/03:00am 18.5 15.6 1.7 32 7.8 NNW 6 7 3 4 1015.8 1013.6 0.0
02/02:30am 18.5 15.8 2.4 34 7.6 W 6 7 3 4 1016.1 1013.8 0.0
02/02:00am 19.4 16.2 0.6 28 8.6 WNW 7 9 4 5 1016.3 1014.0 0.0
02/01:30am 18.3 15.2 1.1 31 7.9 NW 7 9 4 5 1016.7 1014.4 0.0
02/01:00am 18.8 15.7 1.3 31 8.1 WNW 7 7 4 4 1016.9 1014.6 0.0
02/12:30am 20.7 17.6 1.3 27 9.1 NW 7 7 4 4 1017.1 1014.9 0.0
02/12:00am 19.7 17.7 2.2 31 8.3 W 2 7 1 4 1017.2 1015.0 0.0
 
Date/Time
CST
Temp
°C
App
Temp
°C
Dew
Point
Rel
Hum
%
Delta-T
°C
Wind Press
QNH
hPa
Press
MSL
hPa
Rain
since 9 am
mm
Dir
 
Spd
km/h
Gust
km/h
Spd
kts
Gust
kts
01/11:30pm 19.9 16.9 0.9 28 8.8 WSW 6 7 3 4 1017.3 1015.1 0.0
01/11:00pm 20.7 18.6 -0.5 24 9.6 CALM 0 0 0 0 1017.5 1015.3 0.0
01/10:30pm 20.3 17.0 0.2 26 9.2 S 7 9 4 5 1017.6 1015.4 0.0
01/10:00pm 21.3 18.3 2.0 28 9.2 S 7 7 4 4 1017.7 1015.5 0.0
01/09:30pm 23.2 19.6 2.9 26 10.0 S 11 11 6 6 1017.7 1015.5 0.0
01/09:00pm 23.8 20.2 0.9 22 10.9 S 9 9 5 5 1017.6 1015.4 0.0
01/08:30pm 24.3 20.7 0.9 21 11.2 SSE 9 11 5 6 1017.2 1015.0 0.0
01/08:00pm 24.9 21.2 -0.1 19 11.8 SE 9 11 5 6 1016.8 1014.5 0.0
01/07:30pm 25.4 21.2 -1.0 17 12.3 SE 11 13 6 7 1016.4 1014.1 0.0
01/07:00pm 27.0 22.7 -1.4 15 13.3 SE 11 13 6 7 1016.1 1013.8 0.0
01/06:30pm 29.3 24.9 -2.7 12 14.9 SE 11 17 6 9 1015.6 1013.4 0.0
01/06:00pm 30.7 25.2 -5.3 9 16.2 SSE 15 20 8 11 1015.2 1012.9 0.0
01/05:30pm 31.1 25.3 -4.6 9 16.3 SE 17 26 9 14 1015.0 1012.7 0.0
01/05:00pm 31.2 25.8 -4.3 10 16.3 SSE 15 28 8 15 1014.8 1012.5 0.0
01/04:30pm 31.7 25.1 -6.7 8 17.0 ESE 20 33 11 18 1014.8 1012.5 0.0
01/04:00pm 31.7 25.4 -6.0 8 16.9 ESE 19 28 10 15 1014.9 1012.6 0.0
01/03:30pm 31.9 25.5 -7.2 7 17.2 SSE 19 30 10 16 1015.2 1012.9 0.0
01/03:00pm 32.7 25.7 -7.5 7 17.7 SE 22 33 12 18 1015.2 1012.9 0.0
01/02:30pm 30.8 26.2 -4.5 10 16.1 S 11 19 6 10 1015.6 1013.4 0.0
01/02:00pm 31.5 25.9 -2.8 11 16.2 S 17 28 9 15 1016.0 1013.7 0.0
01/01:30pm 31.2 25.4 -4.3 10 16.3 SSE 17 28 9 15 1016.4 1014.1 0.0
01/01:00pm 30.3 26.0 -1.5 12 15.2 S 11 24 6 13 1016.9 1014.6 0.0
01/12:30pm 29.9 24.5 -1.6 13 15.0 ESE 17 26 9 14 1017.3 1015.1 0.0
01/12:00pm 29.2 24.6 -0.8 14 14.4 SSE 13 26 7 14 1017.9 1015.6 0.0
01/11:30am 28.8 23.5 -0.5 15 14.1 SSE 17 28 9 15 1018.4 1016.1 0.0
01/11:00am 27.5 23.2 1.3 18 12.9 SE 13 20 7 11 1018.9 1016.7 0.0
01/10:30am 27.2 22.7 -0.6 16 13.2 ESE 13 20 7 11 1019.2 1017.0 0.0
01/10:00am 26.3 21.4 -0.3 17 12.6 E 15 19 8 10 1019.5 1017.3 0.0
01/09:30am 25.3 21.8 1.4 21 11.6 ESE 9 15 5 8 1019.6 1017.4 0.0
01/09:00am 23.6 21.7 2.6 25 10.3 NE 2 6 1 3 1019.7 1016.5 0.0
01/08:30am 21.3 19.5 3.6 31 8.7 W 2 6 1 3 1019.4 1016.2 0.0
01/08:00am 18.3 15.3 2.0 33 7.6 WNW 7 9 4 5 1019.2 1016.0 0.0
01/07:30am 14.8 11.7 1.4 40 6.0 WNW 7 9 4 5 1019.1 1015.9 0.0
01/07:00am 12.7 9.2 1.0 45 5.1 WNW 9 11 5 6 1018.9 1015.6 0.0
01/06:30am 12.4 8.9 1.2 46 4.9 WNW 9 11 5 6 1018.7 1015.4 0.0
01/06:00am 13.0 9.1 1.4 45 5.1 WNW 11 11 6 6 1018.6 1015.3 0.0
01/05:30am 14.0 10.5 1.1 41 5.7 NNW 9 11 5 6 1018.2 1014.9 0.0
01/05:00am 13.2 9.7 1.1 43 5.3 WNW 9 9 5 5 1018.1 1014.8 0.0
01/04:30am 14.1 10.9 0.9 40 5.8 NW 7 9 4 5 1017.9 1014.6 0.0
01/04:00am 13.8 10.2 0.5 40 5.8 WNW 9 11 5 6 1017.9 1014.6 0.0
01/03:30am 14.8 11.7 1.1 39 6.1 W 7 9 4 5 1017.9 1014.6 0.0
01/03:00am 14.9 11.3 0.6 37 6.3 WNW 9 9 5 5 1017.9 1014.6 0.0
01/02:30am 15.3 12.1 0.6 36 6.5 WNW 7 7 4 4 1018.1 1014.8 0.0
01/02:00am 15.6 12.4 0.8 36 6.6 W 7 9 4 5 1018.3 1015.0 0.0
01/01:30am 15.8 12.6 0.8 36 6.7 WNW 7 7 4 4 1018.8 1015.5 0.0
01/01:00am 15.9 14.0 0.6 35 6.8 CALM 0 0 0 0 1019.3 1016.1 0.0
01/12:30am 17.8 14.8 0.8 32 7.7 ESE 6 7 3 4 1019.6 1016.4 0.0
01/12:00am 18.4 15.2 3.1 36 7.3 ESE 9 11 5 6 1019.9 1016.6 0.0
 
Date/Time
CST
Temp
°C
App
Temp
°C
Dew
Point
Rel
Hum
%
Delta-T
°C
Wind Press
QNH
hPa
Press
MSL
hPa
Rain
since 9 am
mm
Dir
 
Spd
km/h
Gust
km/h
Spd
kts
Gust
kts
31/11:30pm 18.9 16.0 1.4 31 8.1 NE 6 7 3 4 1020.1 1016.8 0.0
31/11:00pm 19.6 16.8 3.2 33 7.9 ENE 7 9 4 5 1020.1 1016.8 0.0
31/10:30pm 21.0 18.0 1.1 26 9.3 NE 6 7 3 4 1020.1 1016.8 0.0
31/10:00pm 20.4 17.5 1.7 29 8.8 ENE 6 9 3 5 1020.1 1016.8 0.0
31/09:30pm 20.3 17.4 2.5 30 8.5 ESE 7 7 4 4 1020.1 1016.8 0.0
31/09:00pm 21.3 17.9 1.7 27 9.3 SSE 9 9 5 5 1019.7 1016.5 0.0
31/08:30pm 22.5 19.0 1.2 24 10.1 SE 9 11 5 6 1019.4 1016.2 0.0
31/08:00pm 22.6 18.7 1.0 24 10.2 SE 11 11 6 6 1019.0 1015.7 0.0
31/07:30pm 24.4 20.5 1.0 21 11.2 SSE 11 13 6 7 1018.7 1015.4 0.0
31/07:00pm 24.4 20.5 1.0 21 11.2 SSE 11 13 6 7 1018.5 1015.2 0.0
31/06:30pm 27.7 23.5 -1.1 15 13.6 SE 11 15 6 8 1018.2 1014.9 0.0
31/06:00pm 29.3 23.7 -2.8 12 14.9 ESE 17 24 9 13 1018.0 1014.7 0.0
31/05:30pm 29.9 24.0 -2.1 12 15.1 ESE 19 24 10 13 1017.7 1014.5 0.0
31/05:00pm 30.4 24.9 -2.1 12 15.4 ESE 17 28 9 15 1017.4 1014.2 0.0
31/04:30pm 30.3 24.4 -1.9 12 15.3 E 19 30 10 16 1017.4 1014.2 0.0
31/04:00pm 30.6 25.6 -1.1 13 15.3 SE 15 30 8 16 1017.5 1014.3 0.0
31/03:30pm 30.3 25.3 -1.5 12 15.2 SE 15 26 8 14 1017.6 1014.4 0.0
31/03:00pm 30.3 24.5 -1.5 12 15.2 ESE 19 26 10 14 1018.0 1014.7 0.0
31/02:30pm 28.9 23.7 0.2 15 14.0 ESE 17 26 9 14 1018.2 1014.9 0.0
31/02:00pm 29.9 24.6 -0.3 14 14.7 ESE 17 26 9 14 1018.7 1015.4 0.0
31/01:30pm 29.7 24.0 0.8 15 14.3 ESE 20 39 11 21 1019.1 1015.9 0.0
31/01:00pm 28.3 23.0 1.9 18 13.2 E 19 33 10 18 1019.7 1016.5 0.0
31/12:30pm 28.5 23.9 1.6 17 13.4 SE 15 22 8 12 1020.3 1017.0 0.0
31/12:00pm 28.0 22.8 2.3 19 12.9 E 19 32 10 17 1020.8 1017.6 0.0
31/11:30am 27.3 22.2 3.0 21 12.3 E 19 30 10 16 1021.4 1018.2 0.0
31/11:00am 26.4 21.9 4.2 24 11.4 ENE 17 32 9 17 1022.0 1018.7 0.0
31/10:30am 25.7 19.9 4.2 25 11.0 ESE 24 39 13 21 1022.3 1019.0 0.0
31/10:00am 25.2 19.9 4.8 27 10.5 E 22 33 12 18 1022.6 1019.4 0.0
31/09:30am 24.5 18.3 4.5 27 10.2 E 26 33 14 18 1022.9 1019.7 0.0
31/09:00am 23.3 18.4 4.9 30 9.4 E 20 28 11 15 1023.0 1019.8 0.0
31/08:30am 21.8 17.8 5.0 33 8.5 ENE 15 24 8 13 1023.1 1019.9 0.0
31/08:00am 20.0 18.1 6.6 41 6.9 ENE 6 7 3 4 1023.0 1019.8 0.0
31/07:30am 16.2 15.1 4.9 47 5.5 CALM 0 0 0 0 1022.8 1019.6 0.0
31/07:00am 13.2 10.8 4.2 54 4.2 E 6 9 3 5 1022.5 1019.3 0.0
31/06:30am 13.8 12.8 5.5 57 4.0 CALM 0 2 0 1 1022.4 1019.2 0.0
31/06:00am 14.3 12.3 4.4 51 4.7 WNW 4 6 2 3 1022.2 1018.9 0.0
31/05:30am 14.3 12.9 3.8 49 4.9 CALM 0 0 0 0 1022.1 1018.8 0.0
31/05:00am 14.6 11.7 4.8 52 4.7 SSE 9 11 5 6 1021.6 1018.4 0.0
31/04:30am 14.8 12.1 3.7 47 5.2 SSE 7 9 4 5 1021.4 1018.2 0.0
31/04:00am 15.5 12.8 3.9 46 5.5 SE 7 9 4 5 1021.3 1018.1 0.0
31/03:30am 16.4 13.8 4.1 44 5.9 SE 7 9 4 5 1021.3 1018.1 0.0
31/03:00am 16.1 13.6 4.7 46 5.5 ESE 7 9 4 5 1021.4 1018.2 0.0
31/02:30am 17.6 16.3 4.2 41 6.5 CALM 0 7 0 4 1021.6 1018.4 0.0
31/02:00am 17.6 16.4 4.7 42 6.3 CALM 0 0 0 0 1021.6 1018.4 0.0
31/01:30am 17.4 16.2 4.7 43 6.2 CALM 0 0 0 0 1022.0 1018.7 0.0
31/01:00am 17.0 14.4 4.4 43 6.1 SE 7 9 4 5 1022.1 1018.8 0.0
31/12:30am 17.7 15.0 7.2 50 5.4 SE 11 11 6 6 1022.2 1018.9 0.0
31/12:00am 18.4 17.6 6.7 46 6.0 CALM 0 9 0 5 1022.4 1019.2 0.0
 
Date/Time
CST
Temp
°C
App
Temp
°C
Dew
Point
Rel
Hum
%
Delta-T
°C
Wind Press
QNH
hPa
Press
MSL
hPa
Rain
since 9 am
mm
Dir
 
Spd
km/h
Gust
km/h
Spd
kts
Gust
kts
30/11:30pm 19.6 18.5 5.2 38 7.2 CALM 0 0 0 0 1022.6 1019.4 0.0
30/11:00pm 20.6 18.4 5.1 36 7.8 ESE 6 7 3 4 1022.6 1019.4 0.0
30/10:30pm 22.1 19.9 6.0 35 8.3 ESE 7 9 4 5 1022.7 1019.5 0.0
30/10:00pm 22.1 19.2 4.9 32 8.7 SE 9 11 5 6 1022.6 1019.4 0.0
30/09:30pm 22.0 20.0 8.7 42 7.2 SE 9 9 5 5 1022.7 1019.5 0.0
30/09:00pm 22.9 20.3 6.2 34 8.7 SE 9 11 5 6 1022.5 1019.3 0.0
30/08:30pm 23.8 20.6 5.1 29 9.6 SE 11 13 6 7 1022.2 1018.9 0.0
30/08:00pm 25.4 22.2 4.9 26 10.6 ESE 11 11 6 6 1021.6 1018.4 0.0
30/07:30pm 26.5 22.8 4.7 24 11.3 ESE 13 15 7 8 1021.2 1018.0 0.0

Other Formats:

Comma delimited format used in spreadsheet applications
http://www.bom.gov.au/fwo/IDD60801/IDD60801.94326.axf

JavaScript Object Notation format (JSON) in row-major order
http://www.bom.gov.au/fwo/IDD60801/IDD60801.94326.json